sensor_id;sensor_type;location;lat;lon;timestamp;pressure;altitude;pressure_sealevel;temperature;humidity
10992;BME280;5549;47.028;15.514;2022-12-18T00:00:08;97814.28;;;1.56;73.77
10992;BME280;5549;47.028;15.514;2022-12-18T00:02:38;97821.25;;;1.54;73.67
10992;BME280;5549;47.028;15.514;2022-12-18T00:05:08;97828.16;;;1.54;73.46
10992;BME280;5549;47.028;15.514;2022-12-18T00:07:38;97823.91;;;1.51;73.63
10992;BME280;5549;47.028;15.514;2022-12-18T00:10:09;97822.31;;;1.47;73.60
10992;BME280;5549;47.028;15.514;2022-12-18T00:12:40;97824.94;;;1.46;73.28
10992;BME280;5549;47.028;15.514;2022-12-18T00:15:08;97828.47;;;1.43;73.51
10992;BME280;5549;47.028;15.514;2022-12-18T00:17:38;97833.72;;;1.40;73.25
10992;BME280;5549;47.028;15.514;2022-12-18T00:20:10;97837.19;;;1.39;73.45
10992;BME280;5549;47.028;15.514;2022-12-18T00:22:40;97841.56;;;1.37;73.49
10992;BME280;5549;47.028;15.514;2022-12-18T00:25:08;97842.53;;;1.33;73.23
10992;BME280;5549;47.028;15.514;2022-12-18T00:27:36;97847.81;;;1.30;73.33
10992;BME280;5549;47.028;15.514;2022-12-18T00:30:05;97849.66;;;1.25;72.55
10992;BME280;5549;47.028;15.514;2022-12-18T00:32:33;97850.59;;;1.22;72.50
10992;BME280;5549;47.028;15.514;2022-12-18T00:35:03;97855.00;;;1.19;73.04
10992;BME280;5549;47.028;15.514;2022-12-18T00:37:33;97859.41;;;1.15;72.35
10992;BME280;5549;47.028;15.514;2022-12-18T00:40:01;97861.19;;;1.13;72.49
10992;BME280;5549;47.028;15.514;2022-12-18T00:42:35;97868.16;;;1.10;72.75
10992;BME280;5549;47.028;15.514;2022-12-18T00:45:20;97859.84;;;0.99;72.07
10992;BME280;5549;47.028;15.514;2022-12-18T00:47:47;97865.28;;;0.88;71.70
10992;BME280;5549;47.028;15.514;2022-12-18T00:50:15;97869.81;;;0.78;71.67
10992;BME280;5549;47.028;15.514;2022-12-18T00:52:47;97877.72;;;0.72;72.04
10992;BME280;5549;47.028;15.514;2022-12-18T00:55:17;97879.53;;;0.69;72.17
10992;BME280;5549;47.028;15.514;2022-12-18T00:57:45;97876.09;;;0.68;72.46
10992;BME280;5549;47.028;15.514;2022-12-18T01:00:15;97877.06;;;0.64;71.69
10992;BME280;5549;47.028;15.514;2022-12-18T01:02:43;97884.00;;;0.62;72.16
10992;BME280;5549;47.028;15.514;2022-12-18T01:05:12;97879.75;;;0.59;71.83
10992;BME280;5549;47.028;15.514;2022-12-18T01:07:40;97880.69;;;0.57;71.68
10992;BME280;5549;47.028;15.514;2022-12-18T01:10:12;97894.69;;;0.47;70.96
10992;BME280;5549;47.028;15.514;2022-12-18T01:12:40;97895.75;;;0.38;71.23
10992;BME280;5549;47.028;15.514;2022-12-18T01:15:10;97898.50;;;0.30;70.92
10992;BME280;5549;47.028;15.514;2022-12-18T01:17:37;97903.00;;;0.22;70.47
10992;BME280;5549;47.028;15.514;2022-12-18T01:20:06;97910.81;;;0.19;70.94
10992;BME280;5549;47.028;15.514;2022-12-18T01:22:34;97904.78;;;0.19;71.14
10992;BME280;5549;47.028;15.514;2022-12-18T01:25:05;97909.94;;;0.20;71.32
10992;BME280;5549;47.028;15.514;2022-12-18T01:27:37;97917.69;;;0.20;71.18
10992;BME280;5549;47.028;15.514;2022-12-18T01:30:06;97921.97;;;0.21;71.25
10992;BME280;5549;47.028;15.514;2022-12-18T01:32:34;97918.53;;;0.21;71.32
10992;BME280;5549;47.028;15.514;2022-12-18T01:35:02;97918.53;;;0.21;71.08
10992;BME280;5549;47.028;15.514;2022-12-18T01:37:32;97927.13;;;0.21;71.46
10992;BME280;5549;47.028;15.514;2022-12-18T01:40:00;97928.00;;;0.20;71.22
10992;BME280;5549;47.028;15.514;2022-12-18T01:42:27;97929.78;;;0.18;70.95
10992;BME280;5549;47.028;15.514;2022-12-18T01:45:02;97931.53;;;0.16;70.69
10992;BME280;5549;47.028;15.514;2022-12-18T01:47:35;97940.16;;;0.15;70.93
10992;BME280;5549;47.028;15.514;2022-12-18T01:50:10;97941.94;;;0.13;70.72
10992;BME280;5549;47.028;15.514;2022-12-18T01:52:41;97934.22;;;0.12;70.80
10992;BME280;5549;47.028;15.514;2022-12-18T01:55:11;97938.53;;;0.11;70.63
10992;BME280;5549;47.028;15.514;2022-12-18T01:57:39;97940.34;;;0.08;70.92
10992;BME280;5549;47.028;15.514;2022-12-18T02:00:13;97939.50;;;0.06;70.56
10992;BME280;5549;47.028;15.514;2022-12-18T02:02:45;97943.81;;;0.05;70.99
10992;BME280;5549;47.028;15.514;2022-12-18T02:05:41;97951.59;;;0.04;71.01
10992;BME280;5549;47.028;15.514;2022-12-18T02:08:20;97953.38;;;0.02;70.89
10992;BME280;5549;47.028;15.514;2022-12-18T02:11:00;97957.69;;;0.01;70.99
10992;BME280;5549;47.028;15.514;2022-12-18T02:13:41;97962.00;;;-0.01;70.79
10992;BME280;5549;47.028;15.514;2022-12-18T02:16:21;97960.34;;;-0.05;71.01
10992;BME280;5549;47.028;15.514;2022-12-18T02:18:56;97958.69;;;-0.08;70.80
10992;BME280;5549;47.028;15.514;2022-12-18T02:21:32;97969.03;;;-0.09;71.16
10992;BME280;5549;47.028;15.514;2022-12-18T02:24:18;97966.50;;;-0.12;70.69
10992;BME280;5549;47.028;15.514;2022-12-18T02:26:56;97963.97;;;-0.14;70.79
10992;BME280;5549;47.028;15.514;2022-12-18T02:29:32;97968.31;;;-0.16;70.92
10992;BME280;5549;47.028;15.514;2022-12-18T02:32:09;97966.63;;;-0.18;70.93
10992;BME280;5549;47.028;15.514;2022-12-18T02:34:40;97970.13;;;-0.21;71.04
10992;BME280;5549;47.028;15.514;2022-12-18T02:37:14;97970.19;;;-0.24;70.97
10992;BME280;5549;47.028;15.514;2022-12-18T02:39:46;97959.88;;;-0.25;70.59
10992;BME280;5549;47.028;15.514;2022-12-18T02:42:17;97964.19;;;-0.26;71.13
10992;BME280;5549;47.028;15.514;2022-12-18T02:44:48;97960.78;;;-0.28;70.97
10992;BME280;5549;47.028;15.514;2022-12-18T02:47:20;97956.53;;;-0.30;71.14
10992;BME280;5549;47.028;15.514;2022-12-18T02:49:57;97967.78;;;-0.33;71.06
10992;BME280;5549;47.028;15.514;2022-12-18T02:52:38;97972.13;;;-0.37;70.94
10992;BME280;5549;47.028;15.514;2022-12-18T02:55:19;97979.09;;;-0.40;70.55
10992;BME280;5549;47.028;15.514;2022-12-18T02:57:56;97979.16;;;-0.45;70.56
10992;BME280;5549;47.028;15.514;2022-12-18T03:00:33;97980.94;;;-0.47;70.35
10992;BME280;5549;47.028;15.514;2022-12-18T03:03:10;97982.69;;;-0.49;70.49
10992;BME280;5549;47.028;15.514;2022-12-18T03:05:44;97985.31;;;-0.52;70.55
10992;BME280;5549;47.028;15.514;2022-12-18T03:08:21;97989.66;;;-0.54;70.40
10992;BME280;5549;47.028;15.514;2022-12-18T03:10:57;97990.53;;;-0.55;70.44
10992;BME280;5549;47.028;15.514;2022-12-18T03:13:35;98000.91;;;-0.58;70.16
10992;BME280;5549;47.028;15.514;2022-12-18T03:16:07;98003.53;;;-0.61;70.25
10992;BME280;5549;47.028;15.514;2022-12-18T03:18:46;98008.69;;;-0.61;69.94
10992;BME280;5549;47.028;15.514;2022-12-18T03:21:24;98001.88;;;-0.65;70.20
10992;BME280;5549;47.028;15.514;2022-12-18T03:23:56;97991.63;;;-0.68;69.98
10992;BME280;5549;47.028;15.514;2022-12-18T03:26:27;97993.41;;;-0.73;70.18
10992;BME280;5549;47.028;15.514;2022-12-18T03:29:04;97980.59;;;-0.78;70.23
10992;BME280;5549;47.028;15.514;2022-12-18T03:31:35;97983.31;;;-0.85;70.48
10992;BME280;5549;47.028;15.514;2022-12-18T03:34:10;97998.00;;;-0.90;70.64
10992;BME280;5549;47.028;15.514;2022-12-18T03:36:40;97989.53;;;-0.99;71.38
10992;BME280;5549;47.028;15.514;2022-12-18T03:39:10;97992.25;;;-1.08;71.91
10992;BME280;5549;47.028;15.514;2022-12-18T03:41:44;97999.16;;;-1.10;72.36
10992;BME280;5549;47.028;15.514;2022-12-18T03:44:24;98003.47;;;-1.10;72.13
10992;BME280;5549;47.028;15.514;2022-12-18T03:47:03;98003.38;;;-1.06;72.00
10992;BME280;5549;47.028;15.514;2022-12-18T03:49:39;98005.03;;;-1.02;71.83
10992;BME280;5549;47.028;15.514;2022-12-18T03:52:14;97997.25;;;-0.99;71.78
10992;BME280;5549;47.028;15.514;2022-12-18T03:54:46;98008.44;;;-0.98;71.84
10992;BME280;5549;47.028;15.514;2022-12-18T03:57:19;98014.38;;;-0.94;71.57
10992;BME280;5549;47.028;15.514;2022-12-18T03:59:54;98014.38;;;-0.94;72.11
10992;BME280;5549;47.028;15.514;2022-12-18T04:02:25;98018.72;;;-0.97;72.07
10992;BME280;5549;47.028;15.514;2022-12-18T04:05:00;98017.94;;;-1.02;72.12
10992;BME280;5549;47.028;15.514;2022-12-18T04:07:30;98021.47;;;-1.09;72.24
10992;BME280;5549;47.028;15.514;2022-12-18T04:09:59;98028.56;;;-1.23;72.51
10992;BME280;5549;47.028;15.514;2022-12-18T04:12:30;98040.72;;;-1.33;73.29
10992;BME280;5549;47.028;15.514;2022-12-18T04:14:59;98037.31;;;-1.35;73.16
10992;BME280;5549;47.028;15.514;2022-12-18T04:17:29;98040.78;;;-1.37;73.35
10992;BME280;5549;47.028;15.514;2022-12-18T04:19:56;98031.59;;;-1.56;74.58
10992;BME280;5549;47.028;15.514;2022-12-18T04:22:24;98035.81;;;-1.52;74.83
10992;BME280;5549;47.028;15.514;2022-12-18T04:24:51;98033.25;;;-1.52;74.96
10992;BME280;5549;47.028;15.514;2022-12-18T04:27:21;98040.97;;;-1.51;74.74
10992;BME280;5549;47.028;15.514;2022-12-18T04:29:49;98041.81;;;-1.50;74.68
10992;BME280;5549;47.028;15.514;2022-12-18T04:32:18;98051.19;;;-1.46;74.65
10992;BME280;5549;47.028;15.514;2022-12-18T04:34:46;98057.22;;;-1.46;75.05
10992;BME280;5549;47.028;15.514;2022-12-18T04:37:13;98057.16;;;-1.43;74.84
10992;BME280;5549;47.028;15.514;2022-12-18T04:39:43;98074.28;;;-1.39;74.72
10992;BME280;5549;47.028;15.514;2022-12-18T04:42:11;98063.13;;;-1.38;75.11
10992;BME280;5549;47.028;15.514;2022-12-18T04:44:38;98060.56;;;-1.41;75.44
10992;BME280;5549;47.028;15.514;2022-12-18T04:47:06;98064.84;;;-1.40;75.66
10992;BME280;5549;47.028;15.514;2022-12-18T04:49:35;98064.84;;;-1.38;75.34
10992;BME280;5549;47.028;15.514;2022-12-18T04:52:02;98071.78;;;-1.43;75.69
10992;BME280;5549;47.028;15.514;2022-12-18T04:54:30;98078.72;;;-1.50;75.96
10992;BME280;5549;47.028;15.514;2022-12-18T04:56:57;98084.75;;;-1.52;76.01
10992;BME280;5549;47.028;15.514;2022-12-18T04:59:25;98089.06;;;-1.53;76.29
10992;BME280;5549;47.028;15.514;2022-12-18T05:01:53;98089.84;;;-1.46;76.21
10992;BME280;5549;47.028;15.514;2022-12-18T05:04:20;98091.47;;;-1.38;76.30
10992;BME280;5549;47.028;15.514;2022-12-18T05:06:49;98091.41;;;-1.33;76.14
10992;BME280;5549;47.028;15.514;2022-12-18T05:09:19;98083.63;;;-1.30;75.87
10992;BME280;5549;47.028;15.514;2022-12-18T05:11:46;98082.75;;;-1.27;75.60
10992;BME280;5549;47.028;15.514;2022-12-18T05:14:15;98088.00;;;-1.35;75.36
10992;BME280;5549;47.028;15.514;2022-12-18T05:16:43;98094.88;;;-1.37;75.46
10992;BME280;5549;47.028;15.514;2022-12-18T05:19:10;98101.72;;;-1.33;75.45
10992;BME280;5549;47.028;15.514;2022-12-18T05:21:38;98105.94;;;-1.29;75.50
10992;BME280;5549;47.028;15.514;2022-12-18T05:24:09;98111.06;;;-1.26;75.16
10992;BME280;5549;47.028;15.514;2022-12-18T05:26:39;98102.47;;;-1.25;75.00
10992;BME280;5549;47.028;15.514;2022-12-18T05:29:10;98110.19;;;-1.23;75.02
10992;BME280;5549;47.028;15.514;2022-12-18T05:31:38;98117.88;;;-1.22;74.91
10992;BME280;5549;47.028;15.514;2022-12-18T05:34:06;98115.34;;;-1.25;74.43
10992;BME280;5549;47.028;15.514;2022-12-18T05:36:34;98119.00;;;-1.41;74.59
10992;BME280;5549;47.028;15.514;2022-12-18T05:39:02;98129.44;;;-1.53;74.87
10992;BME280;5549;47.028;15.514;2022-12-18T05:41:31;98131.16;;;-1.54;75.21
10992;BME280;5549;47.028;15.514;2022-12-18T05:43:59;98125.13;;;-1.51;75.31
10992;BME280;5549;47.028;15.514;2022-12-18T05:46:29;98132.88;;;-1.54;75.43
10992;BME280;5549;47.028;15.514;2022-12-18T05:49:00;98134.72;;;-1.66;75.61
10992;BME280;5549;47.028;15.514;2022-12-18T05:51:28;98133.84;;;-1.65;75.64
10992;BME280;5549;47.028;15.514;2022-12-18T05:53:58;98136.38;;;-1.62;75.54
10992;BME280;5549;47.028;15.514;2022-12-18T05:56:28;98132.97;;;-1.62;75.57
10992;BME280;5549;47.028;15.514;2022-12-18T05:58:59;98126.94;;;-1.59;75.35
10992;BME280;5549;47.028;15.514;2022-12-18T06:01:27;98132.84;;;-1.53;75.22
10992;BME280;5549;47.028;15.514;2022-12-18T06:03:57;98132.84;;;-1.51;75.17
10992;BME280;5549;47.028;15.514;2022-12-18T06:06:26;98144.91;;;-1.55;74.78
10992;BME280;5549;47.028;15.514;2022-12-18T06:08:56;98141.50;;;-1.57;74.88
10992;BME280;5549;47.028;15.514;2022-12-18T06:11:25;98149.19;;;-1.55;74.81
10992;BME280;5549;47.028;15.514;2022-12-18T06:13:58;98155.28;;;-1.63;74.69
10992;BME280;5549;47.028;15.514;2022-12-18T06:16:26;98154.38;;;-1.58;74.76
10992;BME280;5549;47.028;15.514;2022-12-18T06:18:56;98154.53;;;-1.77;74.70
10992;BME280;5549;47.028;15.514;2022-12-18T06:21:24;98163.22;;;-1.87;74.97
10992;BME280;5549;47.028;15.514;2022-12-18T06:23:51;98173.53;;;-1.87;74.62
10992;BME280;5549;47.028;15.514;2022-12-18T06:26:19;98169.31;;;-1.97;74.98
10992;BME280;5549;47.028;15.514;2022-12-18T06:28:49;98176.97;;;-1.89;75.60
10992;BME280;5549;47.028;15.514;2022-12-18T06:31:18;98180.28;;;-1.77;75.46
10992;BME280;5549;47.028;15.514;2022-12-18T06:33:48;98193.16;;;-1.72;74.88
10992;BME280;5549;47.028;15.514;2022-12-18T06:36:18;98193.06;;;-1.63;75.14
10992;BME280;5549;47.028;15.514;2022-12-18T06:38:45;98187.84;;;-1.54;74.82
10992;BME280;5549;47.028;15.514;2022-12-18T06:41:16;98187.75;;;-1.48;74.74
10992;BME280;5549;47.028;15.514;2022-12-18T06:43:46;98192.84;;;-1.40;74.76
10992;BME280;5549;47.028;15.514;2022-12-18T06:46:14;98190.19;;;-1.34;74.36
10992;BME280;5549;47.028;15.514;2022-12-18T06:48:46;98191.00;;;-1.29;74.50
10992;BME280;5549;47.028;15.514;2022-12-18T06:51:17;98185.91;;;-1.35;74.00
10992;BME280;5549;47.028;15.514;2022-12-18T06:53:47;98197.84;;;-1.28;74.24
10992;BME280;5549;47.028;15.514;2022-12-18T06:56:16;98199.47;;;-1.19;74.31
10992;BME280;5549;47.028;15.514;2022-12-18T06:58:43;98208.00;;;-1.14;74.09
10992;BME280;5549;47.028;15.514;2022-12-18T07:01:14;98206.88;;;-0.90;75.93
10992;BME280;5549;47.028;15.514;2022-12-18T07:03:43;98208.28;;;-0.08;83.54
10992;BME280;5549;47.028;15.514;2022-12-18T07:06:15;98208.47;;;0.83;87.15
10992;BME280;5549;47.028;15.514;2022-12-18T07:08:43;98204.41;;;1.54;88.48
10992;BME280;5549;47.028;15.514;2022-12-18T07:11:11;98204.88;;;2.10;89.02
10992;BME280;5549;47.028;15.514;2022-12-18T07:13:39;98195.97;;;2.54;88.72
10992;BME280;5549;47.028;15.514;2022-12-18T07:16:11;98192.28;;;2.96;88.19
10992;BME280;5549;47.028;15.514;2022-12-18T07:18:39;98193.00;;;3.30;86.15
10992;BME280;5549;47.028;15.514;2022-12-18T07:21:10;98185.25;;;3.60;83.11
10992;BME280;5549;47.028;15.514;2022-12-18T07:23:38;98194.94;;;3.82;78.98
10992;BME280;5549;47.028;15.514;2022-12-18T07:26:07;98201.19;;;4.03;74.83
10992;BME280;5549;47.028;15.514;2022-12-18T07:28:36;98202.50;;;4.16;71.84
10992;BME280;5549;47.028;15.514;2022-12-18T07:31:10;98205.38;;;3.81;69.19
10992;BME280;5549;47.028;15.514;2022-12-18T07:33:38;98213.44;;;3.42;67.63
10992;BME280;5549;47.028;15.514;2022-12-18T07:36:09;98224.88;;;3.06;67.52
10992;BME280;5549;47.028;15.514;2022-12-18T07:38:37;98237.75;;;2.76;66.91
10992;BME280;5549;47.028;15.514;2022-12-18T07:41:07;98243.75;;;2.46;66.34
10992;BME280;5549;47.028;15.514;2022-12-18T07:43:36;98238.41;;;2.16;65.69
10992;BME280;5549;47.028;15.514;2022-12-18T07:46:04;98233.72;;;1.95;66.48
10992;BME280;5549;47.028;15.514;2022-12-18T07:48:32;98236.75;;;1.77;66.13
10992;BME280;5549;47.028;15.514;2022-12-18T07:51:05;98246.50;;;1.63;65.32
10992;BME280;5549;47.028;15.514;2022-12-18T07:53:36;98237.38;;;1.46;65.33
10992;BME280;5549;47.028;15.514;2022-12-18T07:56:06;98242.88;;;1.31;65.75
10992;BME280;5549;47.028;15.514;2022-12-18T07:58:35;98255.09;;;1.23;66.06
10992;BME280;5549;47.028;15.514;2022-12-18T08:01:04;98260.28;;;1.23;66.31
10992;BME280;5549;47.028;15.514;2022-12-18T08:03:32;98263.78;;;1.20;65.71
10992;BME280;5549;47.028;15.514;2022-12-18T08:06:01;98263.28;;;1.02;64.60
10992;BME280;5549;47.028;15.514;2022-12-18T08:08:29;98268.50;;;1.00;65.34
10992;BME280;5549;47.028;15.514;2022-12-18T08:10:59;98272.88;;;0.96;65.78
10992;BME280;5549;47.028;15.514;2022-12-18T08:13:27;98272.06;;;0.93;65.65
10992;BME280;5549;47.028;15.514;2022-12-18T08:15:59;98274.97;;;0.76;65.23
10992;BME280;5549;47.028;15.514;2022-12-18T08:18:29;98267.38;;;0.67;66.17
10992;BME280;5549;47.028;15.514;2022-12-18T08:21:08;98265.72;;;0.63;66.36
10992;BME280;5549;47.028;15.514;2022-12-18T08:23:39;98270.91;;;0.61;66.62
10992;BME280;5549;47.028;15.514;2022-12-18T08:26:09;98280.41;;;0.61;66.76
10992;BME280;5549;47.028;15.514;2022-12-18T08:28:36;98293.28;;;0.64;67.25
10992;BME280;5549;47.028;15.514;2022-12-18T08:31:07;98285.56;;;0.61;67.25
10992;BME280;5549;47.028;15.514;2022-12-18T08:33:38;98284.91;;;0.50;66.94
10992;BME280;5549;47.028;15.514;2022-12-18T08:36:09;98270.41;;;0.40;66.67
10992;BME280;5549;47.028;15.514;2022-12-18T08:38:37;98264.47;;;0.35;67.35
10992;BME280;5549;47.028;15.514;2022-12-18T08:41:10;98260.34;;;0.24;67.93
10992;BME280;5549;47.028;15.514;2022-12-18T08:43:39;98265.31;;;0.37;68.01
10992;BME280;5549;47.028;15.514;2022-12-18T08:46:26;98272.03;;;0.47;68.38
10992;BME280;5549;47.028;15.514;2022-12-18T08:48:55;98272.72;;;0.56;68.69
10992;BME280;5549;47.028;15.514;2022-12-18T08:51:23;98274.31;;;0.65;68.41
10992;BME280;5549;47.028;15.514;2022-12-18T08:53:53;98278.53;;;0.69;68.42
10992;BME280;5549;47.028;15.514;2022-12-18T08:56:22;98285.47;;;0.67;68.62
10992;BME280;5549;47.028;15.514;2022-12-18T08:58:52;98290.47;;;0.76;68.64
10992;BME280;5549;47.028;15.514;2022-12-18T09:01:20;98293.00;;;0.79;68.81
10992;BME280;5549;47.028;15.514;2022-12-18T09:03:51;98288.59;;;0.84;68.63
10992;BME280;5549;47.028;15.514;2022-12-18T09:06:21;98295.72;;;0.73;68.69
10992;BME280;5549;47.028;15.514;2022-12-18T09:08:49;98296.56;;;0.74;68.68
10992;BME280;5549;47.028;15.514;2022-12-18T09:11:23;98292.41;;;0.65;69.07
10992;BME280;5549;47.028;15.514;2022-12-18T09:13:54;98282.47;;;0.41;70.09
10992;BME280;5549;47.028;15.514;2022-12-18T09:16:23;98290.34;;;0.33;69.84
10992;BME280;5549;47.028;15.514;2022-12-18T09:18:51;98300.00;;;0.20;69.58
10992;BME280;5549;47.028;15.514;2022-12-18T09:21:30;98298.25;;;0.22;69.65
10992;BME280;5549;47.028;15.514;2022-12-18T09:24:00;98303.41;;;0.24;70.18
10992;BME280;5549;47.028;15.514;2022-12-18T09:26:32;98310.16;;;0.32;70.60
10992;BME280;5549;47.028;15.514;2022-12-18T09:28:59;98307.50;;;0.37;70.42
10992;BME280;5549;47.028;15.514;2022-12-18T09:31:27;98305.69;;;0.44;70.80
10992;BME280;5549;47.028;15.514;2022-12-18T09:33:58;98308.22;;;0.47;70.65
10992;BME280;5549;47.028;15.514;2022-12-18T09:36:26;98315.22;;;0.39;70.63
10992;BME280;5549;47.028;15.514;2022-12-18T09:38:54;98312.69;;;0.36;70.84
10992;BME280;5549;47.028;15.514;2022-12-18T09:41:43;98311.03;;;0.31;71.09
10992;BME280;5549;47.028;15.514;2022-12-18T09:44:18;98310.34;;;0.20;71.35
10992;BME280;5549;47.028;15.514;2022-12-18T09:46:53;98311.34;;;0.12;71.94
10992;BME280;5549;47.028;15.514;2022-12-18T09:49:26;98306.19;;;0.10;72.06
10992;BME280;5549;47.028;15.514;2022-12-18T09:52:00;98300.19;;;0.08;71.97
10992;BME280;5549;47.028;15.514;2022-12-18T09:54:38;98298.34;;;0.16;71.57
10992;BME280;5549;47.028;15.514;2022-12-18T09:57:15;98302.69;;;0.14;72.64
10992;BME280;5549;47.028;15.514;2022-12-18T09:59:49;98299.81;;;-0.27;73.36
10992;BME280;5549;47.028;15.514;2022-12-18T10:02:24;98297.13;;;-0.21;73.48
10992;BME280;5549;47.028;15.514;2022-12-18T10:05:05;98297.81;;;-0.09;73.17
10992;BME280;5549;47.028;15.514;2022-12-18T10:07:44;98300.38;;;-0.07;73.06
10992;BME280;5549;47.028;15.514;2022-12-18T10:10:26;98299.44;;;-0.02;73.02
10992;BME280;5549;47.028;15.514;2022-12-18T10:13:09;98288.47;;;-0.17;73.78
10992;BME280;5549;47.028;15.514;2022-12-18T10:15:59;98279.84;;;-0.16;73.99
10992;BME280;5549;47.028;15.514;2022-12-18T10:18:46;98282.41;;;-0.15;74.82
10992;BME280;5549;47.028;15.514;2022-12-18T10:21:23;98282.31;;;-0.09;74.79
10992;BME280;5549;47.028;15.514;2022-12-18T10:24:00;98283.16;;;-0.07;74.60
10992;BME280;5549;47.028;15.514;2022-12-18T10:26:33;98284.06;;;-0.09;74.39
10992;BME280;5549;47.028;15.514;2022-12-18T10:29:10;98288.47;;;-0.17;74.79
10992;BME280;5549;47.028;15.514;2022-12-18T10:31:42;98292.91;;;-0.27;74.93
10992;BME280;5549;47.028;15.514;2022-12-18T10:34:10;98286.16;;;-0.37;75.36
10992;BME280;5549;47.028;15.514;2022-12-18T10:36:37;98292.94;;;-0.28;75.22
10992;BME280;5549;47.028;15.514;2022-12-18T10:39:19;98281.81;;;-0.34;75.49
10992;BME280;5549;47.028;15.514;2022-12-18T10:41:49;98290.34;;;-0.28;75.25
10992;BME280;5549;47.028;15.514;2022-12-18T10:44:23;98291.94;;;-0.18;74.76
10992;BME280;5549;47.028;15.514;2022-12-18T10:47:02;98286.72;;;-0.15;74.41
10992;BME280;5549;47.028;15.514;2022-12-18T10:49:32;98287.00;;;-0.37;75.66
10992;BME280;5549;47.028;15.514;2022-12-18T10:52:14;98287.28;;;-0.58;76.91
10992;BME280;5549;47.028;15.514;2022-12-18T10:54:49;98289.09;;;-0.66;77.35
10992;BME280;5549;47.028;15.514;2022-12-18T10:57:32;98276.97;;;-0.58;77.17
10992;BME280;5549;47.028;15.514;2022-12-18T11:00:26;98267.59;;;-0.63;77.45
10992;BME280;5549;47.028;15.514;2022-12-18T11:02:55;98266.59;;;-0.55;77.13
10992;BME280;5549;47.028;15.514;2022-12-18T11:05:26;98272.50;;;-0.45;76.74
10992;BME280;5549;47.028;15.514;2022-12-18T11:07:55;98269.94;;;-0.47;77.24
10992;BME280;5549;47.028;15.514;2022-12-18T11:10:30;98274.22;;;-0.44;77.43
10992;BME280;5549;47.028;15.514;2022-12-18T11:13:14;98275.84;;;-0.37;77.35
10992;BME280;5549;47.028;15.514;2022-12-18T11:15:47;98286.25;;;-0.43;77.62
10992;BME280;5549;47.028;15.514;2022-12-18T11:18:21;98281.91;;;-0.40;77.30
10992;BME280;5549;47.028;15.514;2022-12-18T11:20:55;98281.97;;;-0.46;77.64
10992;BME280;5549;47.028;15.514;2022-12-18T11:23:24;98265.69;;;-0.51;77.37
10992;BME280;5549;47.028;15.514;2022-12-18T11:25:55;98265.59;;;-0.43;77.19
10992;BME280;5549;47.028;15.514;2022-12-18T11:28:39;98270.69;;;-0.39;76.97
10992;BME280;5549;47.028;15.514;2022-12-18T11:31:25;98265.38;;;-0.28;77.46
10992;BME280;5549;47.028;15.514;2022-12-18T11:34:00;98273.78;;;-0.12;76.99
10992;BME280;5549;47.028;15.514;2022-12-18T11:36:32;98262.41;;;0.01;76.84
10992;BME280;5549;47.028;15.514;2022-12-18T11:39:13;98250.38;;;-0.02;76.52
10992;BME280;5549;47.028;15.514;2022-12-18T11:41:50;98255.91;;;-0.27;76.85
10992;BME280;5549;47.028;15.514;2022-12-18T11:44:45;98257.66;;;-0.29;77.00
10992;BME280;5549;47.028;15.514;2022-12-18T11:47:25;98256.16;;;-0.46;77.25
10992;BME280;5549;47.028;15.514;2022-12-18T11:49:59;98252.81;;;-0.52;77.60
10992;BME280;5549;47.028;15.514;2022-12-18T11:52:31;98258.28;;;-0.77;78.21
10992;BME280;5549;47.028;15.514;2022-12-18T11:55:11;98252.31;;;-0.80;78.50
10992;BME280;5549;47.028;15.514;2022-12-18T11:57:47;98251.38;;;-0.75;78.78
10992;BME280;5549;47.028;15.514;2022-12-18T12:00:19;98248.63;;;-0.61;78.76
10992;BME280;5549;47.028;15.514;2022-12-18T12:03:15;98250.09;;;-0.42;78.42
10992;BME280;5549;47.028;15.514;2022-12-18T12:05:57;98252.41;;;-0.22;78.23
10992;BME280;5549;47.028;15.514;2022-12-18T12:08:38;98244.34;;;-0.02;77.78
10992;BME280;5549;47.028;15.514;2022-12-18T12:11:17;98234.88;;;0.00;77.11
10992;BME280;5549;47.028;15.514;2022-12-18T12:13:59;98237.56;;;-0.08;77.13
10992;BME280;5549;47.028;15.514;2022-12-18T12:16:35;98242.66;;;-0.05;77.21
10992;BME280;5549;47.028;15.514;2022-12-18T12:19:23;98239.91;;;0.09;77.25
10992;BME280;5549;47.028;15.514;2022-12-18T12:22:04;98250.94;;;0.19;76.97
10992;BME280;5549;47.028;15.514;2022-12-18T12:24:48;98242.16;;;0.30;76.91
10992;BME280;5549;47.028;15.514;2022-12-18T12:27:27;98242.00;;;0.40;76.32
10992;BME280;5549;47.028;15.514;2022-12-18T12:30:16;98251.34;;;0.47;76.33
10992;BME280;5549;47.028;15.514;2022-12-18T12:33:08;98244.41;;;0.49;76.15
10992;BME280;5549;47.028;15.514;2022-12-18T12:35:51;98247.06;;;0.46;75.63
10992;BME280;5549;47.028;15.514;2022-12-18T12:38:25;98241.09;;;0.42;75.76
10992;BME280;5549;47.028;15.514;2022-12-18T12:40:59;98232.47;;;0.42;75.84
10992;BME280;5549;47.028;15.514;2022-12-18T12:43:35;98244.53;;;0.43;75.88
10992;BME280;5549;47.028;15.514;2022-12-18T12:46:10;98242.72;;;0.48;75.59
10992;BME280;5549;47.028;15.514;2022-12-18T12:48:45;98241.16;;;0.38;75.58
10992;BME280;5549;47.028;15.514;2022-12-18T12:51:19;98246.44;;;0.31;75.55
10992;BME280;5549;47.028;15.514;2022-12-18T12:53:49;98240.38;;;0.34;75.95
10992;BME280;5549;47.028;15.514;2022-12-18T12:56:20;98244.84;;;0.24;75.95
10992;BME280;5549;47.028;15.514;2022-12-18T12:58:59;98246.56;;;0.24;75.88
10992;BME280;5549;47.028;15.514;2022-12-18T13:01:36;98244.72;;;0.30;76.38
10992;BME280;5549;47.028;15.514;2022-12-18T13:04:20;98249.81;;;0.37;75.89
10992;BME280;5549;47.028;15.514;2022-12-18T13:06:57;98243.75;;;0.38;76.05
10992;BME280;5549;47.028;15.514;2022-12-18T13:09:31;98241.00;;;0.48;75.96
10992;BME280;5549;47.028;15.514;2022-12-18T13:12:03;98247.00;;;0.49;75.72
10992;BME280;5549;47.028;15.514;2022-12-18T13:14:49;98238.44;;;0.47;75.88
10992;BME280;5549;47.028;15.514;2022-12-18T13:17:30;98230.03;;;0.34;75.60
10992;BME280;5549;47.028;15.514;2022-12-18T13:20:12;98237.91;;;0.26;75.51
10992;BME280;5549;47.028;15.514;2022-12-18T13:22:44;98248.16;;;0.32;75.40
10992;BME280;5549;47.028;15.514;2022-12-18T13:25:34;98250.75;;;0.31;75.47
10992;BME280;5549;47.028;15.514;2022-12-18T13:28:11;98245.56;;;0.32;75.42
10992;BME280;5549;47.028;15.514;2022-12-18T13:30:48;98248.94;;;0.36;75.34
10992;BME280;5549;47.028;15.514;2022-12-18T13:33:49;98254.91;;;0.40;75.07